• Join FlightAware (Why Join?)
  • Login
  • US Flag 
05:09PM EDT


 

Airport Tracker/Info


-or-


 

Live Flight TrackerFlight Track Log ✈ EJA831 ✈ 08-Dec-2013 ✈ KRYY - KMIA

Flight Track Log - Related Links

Times and Time Zones

All times are in EST time to prevent confusion due to time zone crossing. See the EJA831 flight status page for this flight to view local times or setup timezone preferences in your user account.

Time Position Orientation Groundspeed Altitude Reporting Facility
EST Latitude Longitude Course Direction KTS MPH feet Rate Location/Type
05:56PM 34.0000 -84.5667 112° Southeast 175 201 2,400  Level Atlanta TRACON
05:57PM 33.9833 -84.5167 112° Southeast 185 213 4,100 1,500 Climbing Atlanta TRACON
05:58PM 33.9458 -84.4819 142° Southeast 185 213 5,200 1,020 Climbing Atlanta Center
05:59PM 33.8958 -84.4742 173° South 185 213 6,000 360 Climbing Atlanta Center
06:00PM 33.8311 -84.4764 182° South 190 219 6,000  Level Atlanta Center
06:01PM 33.7833 -84.4667 170° South 179 206 6,100  Climbing Atlanta TRACON
06:02PM 33.7167 -84.4667 180° South 188 216 6,100 -60 Level Atlanta TRACON
06:04PM 33.6286 -84.4656 179° South 202 232 6,000 -60 Descending Atlanta Center
06:05PM 33.5828 -84.4628 177° South 196 226 6,000  Level Atlanta Center
06:06PM 33.5283 -84.4575 175° South 196 226 6,000  Level Atlanta Center
06:07PM 33.4742 -84.4497 173° South 196 226 6,000 1,080 Level Atlanta Center
06:08PM 33.4139 -84.4072 150° Southeast 219 252 8,200 1,500 Climbing Atlanta Center
06:09PM 33.3472 -84.3694 155° Southeast 258 297 9,000 600 Climbing Atlanta Center
06:10PM 33.2783 -84.3269 153° Southeast 277 319 9,500 900 Climbing Atlanta Center
06:11PM 33.2053 -84.2847 154° Southeast 282 325 10,900 1,620 Climbing Atlanta Center
06:12PM 33.1200 -84.2322 153° Southeast 304 350 12,800 2,700 Climbing Atlanta Center
06:13PM 33.0469 -84.1800 149° Southeast 310 357 16,300 2,460 Climbing Atlanta Center
06:14PM 32.9678 -84.1231 149° Southeast 310 357 17,800 1,620 Climbing Atlanta Center
06:15PM 32.8842 -84.0686 151° Southeast 324 373 19,600 1,560 Climbing Atlanta Center
06:16PM 32.8153 -84.0264 153° Southeast 336 387 21,000 1,620 Climbing Atlanta Center
06:17PM 32.7150 -83.9794 158° South 348 400 22,900 1,800 Climbing Atlanta Center
06:18PM 32.6211 -83.9403 161° South 353 406 24,700 1,560 Climbing Atlanta Center
06:19PM 32.5272 -83.8983 159° South 358 412 26,100 1,200 Climbing Atlanta Center
06:20PM 32.4247 -83.8542 160° South 373 429 27,200 1,200 Climbing Atlanta Center
06:22PM 32.2492 -83.7769 160° South 394 453 29,400 1,200 Climbing Jacksonville Center
06:23PM 32.1428 -83.7292 159° South 400 460 30,600 1,080 Climbing Jacksonville Center
06:24PM 32.0367 -83.6817 159° South 405 466 31,600 960 Climbing Jacksonville Center
06:25PM 31.9325 -83.6342 159° South 411 473 32,600 900 Climbing Jacksonville Center
06:26PM 31.8244 -83.5869 160° South 411 473 33,500 1,020 Climbing Jacksonville Center
06:27PM 31.7056 -83.5347 160° South 411 473 34,700 720 Climbing Jacksonville Center
06:28PM 31.5972 -83.4903 161° South 411 473 35,000 120 Climbing Jacksonville Center
06:29PM 31.4889 -83.4481 162° South 411 473 35,000  Level Jacksonville Center
06:30PM 31.3806 -83.4011 160° South 411 473 35,000  Level Jacksonville Center
06:31PM 31.2700 -83.3544 160° South 411 473 35,000  Level Jacksonville Center
06:32PM 31.1636 -83.3078 159° South 411 473 35,000  Level Jacksonville Center
06:33PM 31.0572 -83.2611 159° South 411 473 35,000  Level Jacksonville Center
06:34PM 30.9508 -83.2172 161° South 411 473 35,000  Level Jacksonville Center
06:35PM 30.8403 -83.1708 160° South 411 473 35,000  Level Jacksonville Center
06:36PM 30.7467 -83.1269 158° South 405 466 35,000  Level Jacksonville Center
06:37PM 30.6381 -83.0833 161° South 411 473 35,000  Level Jacksonville Center
06:38PM 30.5275 -83.0397 161° South 411 473 35,000  Level Jacksonville Center
06:39PM 30.4211 -82.9936 160° South 411 473 35,000  Level Jacksonville Center
06:40PM 30.3103 -82.9478 160° South 411 473 35,000  Level Jacksonville Center
06:41PM 30.2039 -82.9022 160° South 411 473 35,000  Level Jacksonville Center
06:42PM 30.0953 -82.8542 159° South 411 473 35,000  Level Jacksonville Center
06:43PM 29.9806 -82.8133 163° South 416 479 35,000  Level Jacksonville Center
06:44PM 29.8719 -82.7681 160° South 416 479 35,000  Level Jacksonville Center
06:45PM 29.7611 -82.7228 160° South 421 484 35,000  Level Jacksonville Center
06:46PM 29.6464 -82.6728 159° South 430 495 35,000  Level Jacksonville Center
06:47PM 29.5356 -82.6253 160° South 430 495 35,000  Level Jacksonville Center
06:48PM 29.4228 -82.5803 161° South 430 495 35,000  Level Jacksonville Center
06:49PM 29.3097 -82.5331 160° South 425 489 35,000  Level Jacksonville Center
06:50PM 29.1969 -82.4883 161° South 425 489 35,000  Level Jacksonville Center
06:51PM 29.0842 -82.4600 168° South 425 489 35,000  Level Jacksonville Center
06:52PM 28.8631 -82.5081 191° South 408 470 35,000  Level Miami Center
06:53PM 28.7536 -82.5356 192° South 408 470 35,000  Level Miami Center
06:54PM 28.6439 -82.5653 193° South 413 475 35,000  Level Miami Center
06:55PM 28.5428 -82.5933 194° South 413 475 35,000  Level Miami Center
06:56PM 28.4353 -82.6208 193° South 413 475 35,000  Level Miami Center
06:57PM 28.3214 -82.6503 193° South 413 475 35,000  Level Miami Center
06:58PM 28.2139 -82.6778 193° South 413 475 35,000  Level Miami Center
06:59PM 28.1022 -82.7072 193° South 413 475 35,000  Level Miami Center
07:00PM 27.9928 -82.7297 190° South 413 475 35,000  Level Miami Center
07:01PM 27.8725 -82.7164 174° South 413 475 35,000  Level Miami Center
07:02PM 27.7556 -82.6683 160° South 418 481 35,000  Level Miami Center
07:03PM 27.6425 -82.6275 162° South 419 482 35,000  Level Miami Center
07:04PM 27.5375 -82.5894 162° South 424 488 35,000  Level Miami Center
07:05PM 27.4222 -82.5486 163° South 429 494 35,000  Level Miami Center
07:06PM 27.3031 -82.5006 160° South 434 499 35,000  Level Miami Center
07:07PM 27.1983 -82.4606 161° South 434 499 35,000  Level Miami Center
07:08PM 27.0894 -82.4133 159° South 434 499 35,000  Level Miami Center
07:09PM 26.9953 -82.3133 137° Southeast 434 499 35,000  Level Miami Center
07:10PM 26.9114 -82.2092 132° Southeast 444 511 35,000  Level Miami Center
07:11PM 26.8275 -82.1053 132° Southeast 449 517 35,000 -600 Level Miami Center
07:12PM 26.7356 -81.9897 132° Southeast 449 517 33,800 -1,800 Descending Miami Center
07:13PM 26.6533 -81.8931 134° Southeast 443 510 31,500 -2,340 Descending Miami Center
07:14PM 26.5711 -81.7944 133° Southeast 433 498 29,200 -2,340 Descending Miami Center
07:15PM 26.4911 -81.6914 131° Southeast 433 498 26,900 -2,220 Descending Miami Center
07:16PM 26.4150 -81.5978 132° Southeast 428 493 24,800 -2,160 Descending Miami Center
07:17PM 26.3406 -81.5044 132° Southeast 416 479 22,600 -2,160 Descending Miami Center
07:18PM 26.2661 -81.4181 134° Southeast 402 463 20,500 -2,100 Descending Miami Center
07:19PM 26.1958 -81.3297 132° Southeast 385 443 18,500 -1,980 Descending Miami Center
07:20PM 26.1253 -81.2486 134° Southeast 374 430 16,600 -1,860 Descending Miami Center
07:21PM 26.0606 -81.1700 132° Southeast 363 418 14,800 -1,920 Descending Miami Center
07:22PM 26.0464 -81.1578 142° Southeast 338 389 14,400 -1,740 Descending Miami Center
07:22PM 25.9958 -81.0981 133° Southeast 329 379 13,100 -1,320 Descending Miami Center
07:22PM 26.0103 -81.1103 323° Northwest 338 389 13,300 -1,800 Climbing Miami Center
07:23PM 25.9436 -81.0317 133° Southeast 305 351 11,300 -2,040 Descending Miami Center
07:24PM 25.9353 -81.0244 142° Southeast 268 308 11,100 -1,740 Descending Miami Center
07:24PM 25.8994 -80.9631 123° Southeast 282 325 9,600 -1,680 Descending Miami Center
07:24PM 25.8933 -80.9631 180° South 262 302 9,600 -1,680 Level Miami Center
07:26PM 25.8497 -80.8783 120° Southeast 260 299 7,600 -1,740 Descending Miami Center
07:27PM 25.8181 -80.8081 117° Southeast 271 312 6,000 -1,800 Descending Miami Center
07:27PM 25.7989 -80.7497 110° East 259 298 4,500 -1,680 Descending Miami Center
07:28PM 25.7928 -80.7428 134° Southeast 231 266 4,300 -1,320 Descending Miami Center
07:29PM 25.7842 -80.6686 97° East 220 253 3,000 -720 Descending Miami Center
07:29PM 25.7900 -80.6133 83° East 220 253 3,000  Level Miami Center
07:30PM 25.7861 -80.6017 110° East 213 245 3,000 -120 Level Miami Center
07:30PM 25.7936 -80.5467 81° East 215 247 2,900  Descending Miami Center
07:31PM 25.7897 -80.5372 115° Southeast 205 236 3,000  Climbing Miami Center
07:31PM 25.7950 -80.4889 83° East 210 242 2,900  Descending Miami Center
07:32PM 25.7931 -80.4819 107° East 181 208 3,000 -780 Climbing Miami Center
07:33PM 25.7967 -80.4292 86° East 160 184 2,000 -840 Descending Miami Center
07:34PM 25.7958 -80.3783 91° East 157 181 1,300 -720 Descending Miami Center
07:35PM 25.7986 -80.3414 85° East 107 123 600 -660 Descending Miami Center
07:36PM 25.8014 -80.3092 85° East 110 127 100 -600 Descending Miami Center
07:38PM 25.7954 -80.2901 20° North  Level Estimated